createdAt,value
2023-07-24T00:02:03.577Z,99847.22
2023-07-24T00:04:33.373Z,99848.00
2023-07-24T00:07:02.224Z,99840.47
2023-07-24T00:09:29.794Z,99844.22
2023-07-24T00:11:57.349Z,99846.66
2023-07-24T00:14:24.951Z,99847.16
2023-07-24T00:16:52.546Z,99843.16
2023-07-24T00:19:20.365Z,99840.72
2023-07-24T00:21:49.234Z,99833.94
2023-07-24T00:24:16.819Z,99826.34
2023-07-24T00:26:44.454Z,99829.06
2023-07-24T00:29:11.954Z,99821.22
2023-07-24T00:31:39.432Z,99820.66
2023-07-24T00:34:06.978Z,99824.72
2023-07-24T00:36:34.484Z,99814.13
2023-07-24T00:39:03.340Z,99818.75
2023-07-24T00:41:30.823Z,99817.63
2023-07-24T00:43:58.396Z,99824.94
2023-07-24T00:46:26.567Z,99824.94
2023-07-24T00:48:55.154Z,99824.13
2023-07-24T00:51:22.798Z,99825.75
2023-07-24T00:53:50.330Z,99823.06
2023-07-24T00:56:19.242Z,99820.34
2023-07-24T00:58:46.864Z,99811.69
2023-07-24T01:01:14.457Z,99811.41
2023-07-24T01:03:42.052Z,99814.69
2023-07-24T01:06:09.587Z,99813.59
2023-07-24T01:08:37.224Z,99810.06
2023-07-24T01:11:11.847Z,99811.69
2023-07-24T01:13:46.340Z,99813.06
2023-07-24T01:16:16.642Z,99810.09
2023-07-24T01:18:46.864Z,99800.34
2023-07-24T01:21:18.712Z,99799.78
2023-07-24T01:23:53.854Z,99789.22
2023-07-24T01:26:24.866Z,99786.78
2023-07-24T01:28:52.363Z,99784.63
2023-07-24T01:31:19.934Z,99785.66
2023-07-24T01:33:47.712Z,99784.06
2023-07-24T01:36:16.290Z,99779.69
2023-07-24T01:38:44.264Z,99778.13
2023-07-24T01:41:12.131Z,99772.44
2023-07-24T01:43:40.963Z,99779.94
2023-07-24T01:46:09.623Z,99771.84
2023-07-24T01:48:37.209Z,99762.09
2023-07-24T01:51:05.154Z,99760.22
2023-07-24T01:53:32.654Z,99766.16
2023-07-24T01:56:00.322Z,99763.97
2023-07-24T01:58:27.816Z,99764.50
2023-07-24T02:00:58.274Z,99754.28
2023-07-24T02:03:25.863Z,99758.03
2023-07-24T02:05:53.620Z,99743.41
2023-07-24T02:08:21.279Z,99740.44
2023-07-24T02:10:50.648Z,99736.16
2023-07-24T02:13:18.170Z,99718.03
2023-07-24T02:15:45.662Z,99713.47
2023-07-24T02:18:14.515Z,99698.31
2023-07-24T02:20:42.002Z,99692.66
2023-07-24T02:23:11.072Z,99682.09
2023-07-24T02:25:38.568Z,99682.88
2023-07-24T02:28:06.080Z,99693.13
2023-07-24T02:30:33.557Z,99698.25
2023-07-24T02:33:01.166Z,99703.94
2023-07-24T02:35:30.034Z,99718.47
2023-07-24T02:37:57.556Z,99725.00
2023-07-24T02:40:25.047Z,99729.56
2023-07-24T02:42:52.558Z,99727.66
2023-07-24T02:45:20.275Z,99717.97
2023-07-24T02:47:47.817Z,99719.31
2023-07-24T02:50:15.482Z,99720.38
2023-07-24T02:52:44.350Z,99724.94
2023-07-24T02:55:11.944Z,99728.44
2023-07-24T02:57:39.458Z,99731.69
2023-07-24T03:00:09.557Z,99738.72
2023-07-24T03:02:37.264Z,99737.91
2023-07-24T03:05:05.304Z,99730.91
2023-07-24T03:07:33.446Z,99744.13
2023-07-24T03:10:02.329Z,99738.13
2023-07-24T03:12:29.860Z,99736.75
2023-07-24T03:14:57.359Z,99743.22
2023-07-24T03:17:25.135Z,99735.56
2023-07-24T03:19:52.683Z,99727.47
2023-07-24T03:22:20.176Z,99709.50
2023-07-24T03:24:47.803Z,99692.16
2023-07-24T03:27:16.699Z,99708.63
2023-07-24T03:29:44.224Z,99717.19
2023-07-24T03:32:11.736Z,99721.97
2023-07-24T03:34:40.214Z,99716.63
2023-07-24T03:37:07.701Z,99701.00
2023-07-24T03:39:35.250Z,99694.19
2023-07-24T03:42:04.039Z,99682.31
2023-07-24T03:44:32.983Z,99672.59
2023-07-24T03:47:00.639Z,99672.03
2023-07-24T03:49:28.244Z,99669.34
2023-07-24T03:51:55.745Z,99657.41
2023-07-24T03:54:23.268Z,99655.53
2023-07-24T03:56:50.742Z,99653.09
2023-07-24T03:59:18.590Z,99643.13
2023-07-24T04:01:47.509Z,99639.34
2023-07-24T04:04:15.061Z,99628.84
2023-07-24T04:06:42.576Z,99623.94
2023-07-24T04:09:11.870Z,99636.34
2023-07-24T04:11:40.423Z,99639.03
2023-07-24T04:14:07.903Z,99649.56
2023-07-24T04:16:35.780Z,99662.53
2023-07-24T04:19:05.453Z,99660.97
2023-07-24T04:21:33.143Z,99665.31
2023-07-24T04:24:00.680Z,99654.06
2023-07-24T04:26:28.581Z,99651.81
2023-07-24T04:28:56.300Z,99658.00
2023-07-24T04:31:23.883Z,99669.06
2023-07-24T04:33:51.472Z,99676.59
2023-07-24T04:36:20.341Z,99678.25
2023-07-24T04:38:48.366Z,99671.25
2023-07-24T04:41:15.919Z,99674.47
2023-07-24T04:43:43.589Z,99673.16
2023-07-24T04:46:11.185Z,99676.41
2023-07-24T04:48:38.767Z,99667.00
2023-07-24T04:51:06.260Z,99673.19
2023-07-24T04:53:35.090Z,99687.56
2023-07-24T04:56:02.668Z,99702.44
2023-07-24T04:58:30.251Z,99671.91
2023-07-24T05:00:57.762Z,99681.66
2023-07-24T05:03:33.597Z,99681.63
2023-07-24T05:06:01.171Z,99678.94
2023-07-24T05:08:28.749Z,99655.25
2023-07-24T05:10:58.354Z,99672.50
2023-07-24T05:13:25.891Z,99668.19
2023-07-24T05:15:53.531Z,99674.69
2023-07-24T05:18:21.209Z,99690.88
2023-07-24T05:20:52.156Z,99686.81
2023-07-24T05:23:19.736Z,99680.84
2023-07-24T05:25:47.311Z,99685.44
2023-07-24T05:28:16.159Z,99677.91
2023-07-24T05:30:43.708Z,99689.22
2023-07-24T05:33:11.251Z,99693.06
2023-07-24T05:35:38.758Z,99680.66
2023-07-24T05:38:06.258Z,99675.00
2023-07-24T05:40:33.829Z,99666.09
2023-07-24T05:43:01.389Z,99657.19
2023-07-24T05:45:30.216Z,99650.19
2023-07-24T05:47:57.769Z,99660.75
2023-07-24T05:50:25.324Z,99661.53
2023-07-24T05:52:52.839Z,99672.06
2023-07-24T05:55:20.323Z,99659.41
2023-07-24T05:57:47.841Z,99665.66
2023-07-24T06:00:15.776Z,99657.81
2023-07-24T06:02:44.731Z,99657.53
2023-07-24T06:05:12.420Z,99644.00
2023-07-24T06:07:39.960Z,99655.09
2023-07-24T06:10:08.543Z,99658.34
2023-07-24T06:12:36.157Z,99663.50
2023-07-24T06:15:04.363Z,99662.94
2023-07-24T06:17:31.949Z,99665.09
2023-07-24T06:20:01.086Z,99662.69
2023-07-24T06:22:28.654Z,99658.06
2023-07-24T06:24:56.178Z,99664.53
2023-07-24T06:27:23.743Z,99658.88
2023-07-24T06:29:53.366Z,99655.34
2023-07-24T06:32:23.356Z,99665.59
2023-07-24T06:34:50.921Z,99654.22
2023-07-24T06:37:23.159Z,99653.91
2023-07-24T06:39:50.981Z,99649.88
2023-07-24T06:42:18.490Z,99660.09
2023-07-24T06:44:46.021Z,99656.28
2023-07-24T06:47:13.513Z,99656.22
2023-07-24T06:49:41.083Z,99658.38
2023-07-24T06:52:08.955Z,99665.13
2023-07-24T06:54:37.842Z,99668.91
2023-07-24T06:57:05.724Z,99671.75
2023-07-24T06:59:33.282Z,99667.91
2023-07-24T07:02:00.873Z,99670.44
2023-07-24T07:04:28.393Z,99670.22
2023-07-24T07:06:56.192Z,99660.44
2023-07-24T07:09:23.693Z,99656.44
2023-07-24T07:11:52.574Z,99661.53
2023-07-24T07:14:20.079Z,99661.06
2023-07-24T07:16:48.664Z,99664.19
2023-07-24T07:19:16.265Z,99661.91
2023-07-24T07:21:43.787Z,99648.75
2023-07-24T07:24:11.294Z,99649.19
2023-07-24T07:26:38.839Z,99655.03
2023-07-24T07:29:07.703Z,99641.13
2023-07-24T07:31:35.292Z,99645.75
2023-07-24T07:34:02.816Z,99650.56
2023-07-24T07:36:30.682Z,99646.44
2023-07-24T07:38:58.382Z,99644.53
2023-07-24T07:41:25.939Z,99641.53
2023-07-24T07:43:53.448Z,99638.88
2023-07-24T07:46:22.348Z,99637.03
2023-07-24T07:48:50.289Z,99623.66
2023-07-24T07:51:17.894Z,99618.44
2023-07-24T07:53:45.444Z,99614.31
2023-07-24T07:56:12.986Z,99621.09
2023-07-24T07:58:40.508Z,99618.69
2023-07-24T08:01:08.565Z,99624.75
2023-07-24T08:03:37.763Z,99628.50
2023-07-24T08:06:05.304Z,99627.41
2023-07-24T08:08:32.931Z,99624.53
2023-07-24T08:11:00.428Z,99620.72
2023-07-24T08:13:27.957Z,99612.19
2023-07-24T08:15:55.475Z,99613.13
2023-07-24T08:18:23.066Z,99605.41
2023-07-24T08:20:51.892Z,99608.31
2023-07-24T08:23:19.404Z,99593.53
2023-07-24T08:25:53.546Z,99599.09
2023-07-24T08:28:21.199Z,99601.41
2023-07-24T08:30:57.619Z,99595.81
2023-07-24T08:33:25.258Z,99605.72
2023-07-24T08:36:02.661Z,99600.09
2023-07-24T08:38:30.310Z,99602.31
2023-07-24T08:41:05.885Z,99587.91
2023-07-24T08:43:34.054Z,99585.53
2023-07-24T08:46:02.863Z,99577.22
2023-07-24T08:48:34.294Z,99581.84
2023-07-24T08:51:03.949Z,99575.53
2023-07-24T08:53:32.285Z,99583.19
2023-07-24T08:56:02.701Z,99574.22
2023-07-24T08:58:30.359Z,99576.03
2023-07-24T09:00:59.104Z,99574.81
2023-07-24T09:03:27.228Z,99579.34
2023-07-24T09:05:54.947Z,99579.88
2023-07-24T09:08:32.364Z,99582.16
2023-07-24T09:11:00.188Z,99579.13
2023-07-24T09:13:27.868Z,99582.47
2023-07-24T09:15:55.985Z,99576.16
2023-07-24T09:18:23.836Z,99566.06
2023-07-24T09:20:53.048Z,99563.81
2023-07-24T09:23:28.801Z,99554.25
2023-07-24T09:25:57.774Z,99554.25
2023-07-24T09:28:25.359Z,99548.06
2023-07-24T09:30:54.944Z,99544.66
2023-07-24T09:33:22.884Z,99526.94
2023-07-24T09:35:59.987Z,99526.13
2023-07-24T09:38:27.556Z,99518.47
2023-07-24T09:40:57.911Z,99516.03
2023-07-24T09:43:39.048Z,99510.59
2023-07-24T09:46:08.904Z,99502.72
2023-07-24T09:48:43.630Z,99511.56
2023-07-24T09:51:27.235Z,99516.34
2023-07-24T09:53:58.359Z,99516.97
2023-07-24T09:56:38.956Z,99512.88
2023-07-24T09:59:15.625Z,99497.66
2023-07-24T10:01:44.146Z,99495.31
2023-07-24T10:04:12.272Z,99512.19
2023-07-24T10:06:40.065Z,99520.28
2023-07-24T10:09:09.130Z,99513.97
2023-07-24T10:11:38.014Z,99505.84
2023-07-24T10:14:06.028Z,99525.91
2023-07-24T10:16:34.728Z,99523.88
2023-07-24T10:19:02.303Z,99526.50
2023-07-24T10:21:30.415Z,99517.84
2023-07-24T10:24:01.931Z,99528.53
2023-07-24T10:26:29.537Z,99524.09
2023-07-24T10:28:59.053Z,99538.13
2023-07-24T10:31:28.982Z,99527.22
2023-07-24T10:33:58.091Z,99525.59
2023-07-24T10:36:25.641Z,99528.16
2023-07-24T10:38:55.254Z,99528.00
2023-07-24T10:41:23.086Z,99534.25
2023-07-24T10:43:52.088Z,99525.44
2023-07-24T10:46:22.701Z,99533.78
2023-07-24T10:48:52.895Z,99532.53
2023-07-24T10:51:20.529Z,99513.75
2023-07-24T10:53:50.141Z,99525.84
2023-07-24T10:56:18.838Z,99520.78
2023-07-24T10:58:46.382Z,99507.84
2023-07-24T11:01:15.242Z,99507.97
2023-07-24T11:03:44.602Z,99499.34
2023-07-24T11:06:15.957Z,99511.81
2023-07-24T11:08:44.040Z,99499.91
2023-07-24T11:11:13.190Z,99508.50
2023-07-24T11:13:40.711Z,99508.50
2023-07-24T11:16:09.920Z,99506.13
2023-07-24T11:18:54.016Z,99502.88
2023-07-24T11:21:22.524Z,99484.25
2023-07-24T11:23:51.248Z,99490.25
2023-07-24T11:26:21.185Z,99493.03
2023-07-24T11:28:48.740Z,99489.50
2023-07-24T11:31:17.025Z,99488.78
2023-07-24T11:33:46.707Z,99483.75
2023-07-24T11:36:14.759Z,99478.56
2023-07-24T11:38:43.098Z,99464.41
2023-07-24T11:41:11.075Z,99471.16
2023-07-24T11:43:47.604Z,99470.53
2023-07-24T11:46:24.922Z,99473.59
2023-07-24T11:48:56.756Z,99467.00
2023-07-24T11:51:25.533Z,99473.25
2023-07-24T11:53:53.291Z,99450.25
2023-07-24T11:56:23.008Z,99456.44
2023-07-24T11:58:50.556Z,99439.78
2023-07-24T12:01:18.104Z,99443.59
2023-07-24T12:03:45.794Z,99445.72
2023-07-24T12:06:17.951Z,99445.41
2023-07-24T12:08:46.416Z,99444.00
2023-07-24T12:11:20.605Z,99436.16
2023-07-24T12:13:48.168Z,99425.72
2023-07-24T12:16:15.775Z,99418.03
2023-07-24T12:18:43.305Z,99416.50
2023-07-24T12:21:10.826Z,99395.06
2023-07-24T12:23:40.948Z,99404.22
2023-07-24T12:26:08.606Z,99399.25
2023-07-24T12:28:36.179Z,99393.31
2023-07-24T12:31:04.672Z,99397.81
2023-07-24T12:33:32.379Z,99385.69
2023-07-24T12:35:59.941Z,99390.22
2023-07-24T12:38:27.488Z,99393.72
2023-07-24T12:40:56.372Z,99390.53
2023-07-24T12:43:23.975Z,99372.22
2023-07-24T12:45:51.606Z,99390.72
2023-07-24T12:48:19.122Z,99399.09
2023-07-24T12:50:46.681Z,99392.03
2023-07-24T12:53:15.811Z,99401.19
2023-07-24T12:55:49.267Z,99403.28
2023-07-24T12:58:18.211Z,99391.38
2023-07-24T13:00:45.825Z,99404.72
2023-07-24T13:03:13.458Z,99393.13
2023-07-24T13:05:41.337Z,99384.94
2023-07-24T13:08:08.929Z,99377.03
2023-07-24T13:10:36.504Z,99377.38
2023-07-24T13:13:04.140Z,99360.81
2023-07-24T13:15:33.297Z,99357.91
2023-07-24T13:18:07.679Z,99353.69
2023-07-24T13:20:45.555Z,99350.00
2023-07-24T13:23:13.224Z,99342.44
2023-07-24T13:25:40.761Z,99341.78
2023-07-24T13:28:08.291Z,99342.25
2023-07-24T13:30:37.169Z,99346.06
2023-07-24T13:33:04.858Z,99341.75
2023-07-24T13:35:32.428Z,99331.34
2023-07-24T13:38:00.024Z,99319.00
2023-07-24T13:40:27.523Z,99325.28
2023-07-24T13:42:55.027Z,99308.56
2023-07-24T13:45:22.538Z,99302.47
2023-07-24T13:47:51.459Z,99296.22
2023-07-24T13:50:19.134Z,99305.34
2023-07-24T13:52:46.741Z,99304.34
2023-07-24T13:55:15.117Z,99312.34
2023-07-24T13:57:42.907Z,99347.53
2023-07-24T14:00:11.393Z,99357.84
2023-07-24T14:02:39.069Z,99355.31
2023-07-24T14:05:09.916Z,99350.34
2023-07-24T14:07:37.401Z,99353.38
2023-07-24T14:10:05.334Z,99336.91
2023-07-24T14:12:32.873Z,99333.81
2023-07-24T14:15:00.448Z,99329.16
2023-07-24T14:17:27.967Z,99327.03
2023-07-24T14:19:55.545Z,99309.13
2023-07-24T14:22:26.728Z,99300.28
2023-07-24T14:24:55.981Z,99286.97
2023-07-24T14:27:23.531Z,99290.84
2023-07-24T14:29:51.087Z,99283.66
2023-07-24T14:32:18.630Z,99280.81
2023-07-24T14:34:46.135Z,99271.03
2023-07-24T14:37:13.695Z,99277.09
2023-07-24T14:39:42.962Z,99293.66
2023-07-24T14:42:10.499Z,99288.84
2023-07-24T14:44:38.065Z,99265.63
2023-07-24T14:47:06.205Z,99272.09
2023-07-24T14:49:33.725Z,99276.31
2023-07-24T14:52:01.254Z,99278.72
2023-07-24T14:54:28.768Z,99279.03
2023-07-24T14:57:04.615Z,99273.47
2023-07-24T14:59:38.174Z,99264.84
2023-07-24T15:02:06.212Z,99255.28
2023-07-24T15:04:33.744Z,99253.19
2023-07-24T15:07:01.311Z,99259.59
2023-07-24T15:09:28.872Z,99243.34
2023-07-24T15:11:58.964Z,99237.88
2023-07-24T15:14:27.024Z,99237.31
2023-07-24T15:16:54.538Z,99236.69
2023-07-24T15:19:22.054Z,99214.50
2023-07-24T15:21:49.593Z,99224.88
2023-07-24T15:24:18.934Z,99214.31
2023-07-24T15:26:47.168Z,99279.09
2023-07-24T15:29:19.405Z,99311.13
2023-07-24T15:31:47.559Z,99348.94
2023-07-24T15:34:15.131Z,99370.88
2023-07-24T15:36:42.712Z,99361.88
2023-07-24T15:39:10.231Z,99332.16
2023-07-24T15:41:37.729Z,99324.09
2023-07-24T15:44:05.539Z,99334.50
2023-07-24T15:46:34.595Z,99339.53
2023-07-24T15:49:02.289Z,99343.13
2023-07-24T15:51:31.064Z,99337.56
2023-07-24T15:53:59.478Z,99340.47
2023-07-24T15:56:29.951Z,99336.63
2023-07-24T15:58:57.482Z,99334.44
2023-07-24T16:01:26.609Z,99328.13
2023-07-24T16:03:58.384Z,99331.84
2023-07-24T16:06:25.979Z,99325.78
2023-07-24T16:08:53.634Z,99334.47
2023-07-24T16:11:21.158Z,99328.97
2023-07-24T16:13:48.683Z,99321.41
2023-07-24T16:16:16.188Z,99324.06
2023-07-24T16:18:43.862Z,99322.91
2023-07-24T16:21:12.808Z,99332.44
2023-07-24T16:23:40.374Z,99330.59
2023-07-24T16:26:07.956Z,99325.16
2023-07-24T16:28:35.524Z,99325.16
2023-07-24T16:31:03.117Z,99329.75
2023-07-24T16:33:31.337Z,99331.75
2023-07-24T16:36:01.556Z,99339.13
2023-07-24T16:38:30.480Z,99332.75
2023-07-24T16:40:58.433Z,99330.03
2023-07-24T16:43:25.974Z,99339.25
2023-07-24T16:48:27.162Z,99340.72
2023-07-24T16:50:55.045Z,99339.13
2023-07-24T16:53:22.614Z,99341.81
2023-07-24T16:55:51.946Z,99344.72
2023-07-24T16:58:22.322Z,99349.81
2023-07-24T17:00:50.050Z,99354.53
2023-07-24T17:03:17.604Z,99372.88
2023-07-24T17:05:45.187Z,99368.16
2023-07-24T17:08:13.286Z,99372.63
2023-07-24T17:10:45.011Z,99360.78
2023-07-24T17:13:14.109Z,99358.03
2023-07-24T17:15:41.990Z,99366.00
2023-07-24T17:18:09.592Z,99373.91
2023-07-24T17:20:39.089Z,99375.56
2023-07-24T17:23:06.652Z,99383.91
2023-07-24T17:25:34.326Z,99387.63
2023-07-24T17:28:01.872Z,99392.34
2023-07-24T17:30:30.896Z,99392.19
2023-07-24T17:32:59.336Z,99394.22
2023-07-24T17:35:27.000Z,99404.31
2023-07-24T17:37:54.520Z,99409.16
2023-07-24T17:40:22.390Z,99402.97
2023-07-24T17:42:50.196Z,99416.00
2023-07-24T17:45:18.963Z,99409.84
2023-07-24T17:47:47.886Z,99417.56
2023-07-24T17:50:15.430Z,99409.19
2023-07-24T17:52:42.992Z,99412.38
2023-07-24T17:55:10.564Z,99411.31
2023-07-24T17:57:38.108Z,99417.16
2023-07-24T18:00:07.139Z,99420.91
2023-07-24T18:02:34.748Z,99419.94
2023-07-24T18:05:03.720Z,99424.94
2023-07-24T18:07:31.268Z,99434.06
2023-07-24T18:09:58.775Z,99437.06
2023-07-24T18:12:26.881Z,99442.13
2023-07-24T18:14:54.531Z,99442.22
2023-07-24T18:17:22.247Z,99433.06
2023-07-24T18:19:49.811Z,99439.88
2023-07-24T18:22:20.212Z,99450.91
2023-07-24T18:24:47.878Z,99459.31
2023-07-24T18:27:15.512Z,99457.19
2023-07-24T18:29:43.127Z,99466.19
2023-07-24T18:32:10.857Z,99473.53
2023-07-24T18:34:38.409Z,99471.09
2023-07-24T18:37:07.408Z,99476.25
2023-07-24T18:39:36.398Z,99481.44
2023-07-24T18:42:04.918Z,99475.78
2023-07-24T18:44:33.964Z,99485.00
2023-07-24T18:47:01.517Z,99478.22
2023-07-24T18:49:29.083Z,99481.66
2023-07-24T18:51:56.678Z,99488.47
2023-07-24T18:54:24.352Z,99490.38
2023-07-24T18:56:53.341Z,99492.06
2023-07-24T18:59:20.921Z,99503.69
2023-07-24T19:01:49.100Z,99511.56
2023-07-24T19:04:16.679Z,99499.06
2023-07-24T19:06:44.298Z,99521.25
2023-07-24T19:09:11.857Z,99511.53
2023-07-24T19:11:39.392Z,99520.72
2023-07-24T19:14:08.290Z,99521.28
2023-07-24T19:16:36.336Z,99519.13
2023-07-24T19:19:06.527Z,99521.00
2023-07-24T19:21:34.049Z,99522.41
2023-07-24T19:24:01.612Z,99533.09
2023-07-24T19:26:29.313Z,99537.41
2023-07-24T19:28:56.984Z,99541.53
2023-07-24T19:31:25.980Z,99546.75
2023-07-24T19:33:53.547Z,99547.28
2023-07-24T19:36:21.242Z,99557.84
2023-07-24T19:38:48.748Z,99557.81
2023-07-24T19:41:16.255Z,99574.63
2023-07-24T19:43:43.824Z,99569.00
2023-07-24T19:46:11.769Z,99569.03
2023-07-24T19:48:40.905Z,99576.84
2023-07-24T19:51:08.460Z,99577.09
2023-07-24T19:53:36.186Z,99575.22
2023-07-24T19:56:03.747Z,99580.13
2023-07-24T19:58:34.156Z,99580.13
2023-07-24T20:01:02.437Z,99573.09
2023-07-24T20:03:30.286Z,99578.25
2023-07-24T20:06:02.702Z,99572.56
2023-07-24T20:08:33.566Z,99580.69
2023-07-24T20:11:03.629Z,99588.56
2023-07-24T20:13:31.228Z,99582.63
2023-07-24T20:15:59.584Z,99583.44
2023-07-24T20:18:27.231Z,99586.41
2023-07-24T20:20:56.119Z,99594.78
2023-07-24T20:23:25.120Z,99589.38
2023-07-24T20:25:52.843Z,99585.56
2023-07-24T20:28:21.686Z,99582.88
2023-07-24T20:30:49.403Z,99589.38
2023-07-24T20:33:17.467Z,99589.09
2023-07-24T20:35:50.540Z,99596.13
2023-07-24T20:38:27.698Z,99600.72
2023-07-24T20:40:55.875Z,99601.25
2023-07-24T20:43:23.596Z,99596.66
2023-07-24T20:45:52.675Z,99597.47
2023-07-24T20:48:21.327Z,99589.09
2023-07-24T20:50:48.980Z,99597.75
2023-07-24T20:53:16.688Z,99605.59
2023-07-24T20:55:45.541Z,99602.06
2023-07-24T20:58:13.043Z,99608.78
2023-07-24T21:00:40.659Z,99613.91
2023-07-24T21:03:08.324Z,99615.81
2023-07-24T21:05:38.233Z,99616.34
2023-07-24T21:08:06.143Z,99618.78
2023-07-24T21:10:33.696Z,99623.34
2023-07-24T21:13:02.652Z,99614.16
2023-07-24T21:15:30.244Z,99620.38
2023-07-24T21:17:57.810Z,99625.00
2023-07-24T21:20:25.410Z,99624.97
2023-07-24T21:22:52.997Z,99626.06
2023-07-24T21:25:20.643Z,99627.69
2023-07-24T21:27:48.163Z,99627.09
2023-07-24T21:30:17.078Z,99627.09
2023-07-24T21:32:44.632Z,99627.13
2023-07-24T21:35:11.303Z,99629.25
2023-07-24T21:37:40.098Z,99620.06
2023-07-24T21:40:09.057Z,99620.56
2023-07-24T21:42:36.809Z,99625.97
2023-07-24T21:45:04.865Z,99625.75
2023-07-24T21:47:33.729Z,99630.59
2023-07-24T21:50:01.289Z,99626.84
2023-07-24T21:52:28.890Z,99628.97
2023-07-24T21:54:56.387Z,99620.78
2023-07-24T21:57:23.960Z,99632.94
2023-07-24T21:59:51.475Z,99632.44
2023-07-24T22:02:19.048Z,99631.09
2023-07-24T22:04:47.944Z,99627.06
2023-07-24T22:07:15.460Z,99625.94
2023-07-24T22:09:43.015Z,99639.69
2023-07-24T22:12:10.707Z,99641.03
2023-07-24T22:14:38.233Z,99650.19
2023-07-24T22:17:06.812Z,99644.78
2023-07-24T22:19:34.444Z,99652.31
2023-07-24T22:22:03.853Z,99644.78
2023-07-24T22:24:33.776Z,99646.88
2023-07-24T22:27:01.303Z,99642.25
2023-07-24T22:29:31.892Z,99641.66
2023-07-24T22:32:02.899Z,99639.75
2023-07-24T22:34:30.416Z,99635.47
2023-07-24T22:36:57.939Z,99645.13
2023-07-24T22:39:26.817Z,99638.59
2023-07-24T22:41:54.352Z,99648.03
2023-07-24T22:44:21.868Z,99642.31
2023-07-24T22:46:49.697Z,99653.88
2023-07-24T22:49:17.295Z,99651.44
2023-07-24T22:51:44.877Z,99653.13
2023-07-24T22:54:12.417Z,99652.81
2023-07-24T22:56:43.077Z,99654.97
2023-07-24T22:59:22.514Z,99650.03
2023-07-24T23:01:51.550Z,99647.00
2023-07-24T23:04:20.387Z,99649.78
2023-07-24T23:06:47.904Z,99653.16
2023-07-24T23:09:15.486Z,99656.53
2023-07-24T23:11:44.379Z,99651.22
2023-07-24T23:14:11.962Z,99644.59
2023-07-24T23:16:39.466Z,99649.78
2023-07-24T23:19:07.037Z,99647.28
2023-07-24T23:21:34.791Z,99649.69
2023-07-24T23:24:02.404Z,99644.84
2023-07-24T23:26:29.938Z,99649.84
2023-07-24T23:28:59.531Z,99645.53
2023-07-24T23:31:27.189Z,99655.25
2023-07-24T23:33:55.439Z,99654.22
2023-07-24T23:36:32.142Z,99647.22
2023-07-24T23:38:59.722Z,99636.97
2023-07-24T23:41:27.800Z,99643.94
2023-07-24T23:43:55.597Z,99647.22
2023-07-24T23:46:24.737Z,99641.31
2023-07-24T23:48:52.388Z,99644.47
2023-07-24T23:51:21.160Z,99635.34
2023-07-24T23:53:49.470Z,99634.81
2023-07-24T23:56:19.091Z,99637.97
2023-07-24T23:58:46.682Z,99628.88
